aviador You're here:

KDNL Decoded Metar

AUGUSTA/DANIEL in GA, USA
Report Time2017-12-17 07:53:00
UTC Time2017-12-17 08:11:31
Flight Rules vfr VFR
WindCalm
Visibility9999 m
Phenomena:N/A
Clouds:N/A
Expected CloudBase > 1,600 ft AGL from Temp-Dew spread
CeilingNone
Temp03°C (ISA -11)
Dew Point-1°C (75% RH)
AAT0.9°C
QNH1026 hPa
Density Alt-1,286 ft
Elevation427 ft
Report Wrong Elevation
Raw Report
METAR KDNL 170753Z AUTO 00000KT 8SM CLR 03/M01 A3029 RMK AO2 SLP257
T00281011=

Extra information for KDNL:More info

Metar Taf Metar & Taf Last 4 Metars F.Rules Stats Wind Profile Meteogram Temp Stats Airport Information Weather charts Add Link Nearby VenuesMetar ALERT Operation Metar Decoded Social comments

AIRNAV info for KDNL